Time;durP1;ratioP1;P1;durP2;ratioP2;P2;SDS_P1;SDS_P2;PMS_P1;PMS_P2;Temp;Humidity;BMP_temperature;BMP_pressure;BME280_temperature;BME280_humidity;BME280_pressure;Samples;Min_cycle;Max_cycle;Signal;HPM_P1;HPM_P2
2023/01/28 11:23:51;;;;;;;9.50;4.37;;;4.20;99.90;;;;;;4792559;23;20255;-74
2023/01/28 11:26:21;;;;;;;10.77;3.90;;;4.40;99.90;;;;;;4941028;29;20219;-73
2023/01/28 11:28:50;;;;;;;8.63;3.97;;;4.40;99.90;;;;;;4941834;29;20231;-75
2023/01/28 11:31:18;;;;;;;9.30;4.47;;;4.50;99.90;;;;;;4941988;29;20236;-73
2023/01/28 11:33:50;;;;;;;8.13;4.50;;;4.40;99.90;;;;;;4941941;29;20659;-75
2023/01/28 11:36:19;;;;;;;7.67;4.30;;;4.60;99.90;;;;;;4937929;29;20301;-75
2023/01/28 11:38:52;;;;;;;8.57;4.47;;;4.70;99.90;;;;;;4941002;29;20205;-75
2023/01/28 11:41:26;;;;;;;10.50;5.20;;;4.70;99.90;;;;;;4940630;29;20212;-75
2023/01/28 11:43:54;;;;;;;11.57;5.17;;;4.70;99.90;;;;;;4937251;29;20672;-72
2023/01/28 11:46:38;;;;;;;9.50;5.03;;;4.50;99.90;;;;;;4936991;29;20563;-73
2023/01/28 11:49:14;;;;;;;10.23;4.33;;;4.40;99.90;;;;;;4945679;29;20679;-72
2023/01/28 11:51:49;;;;;;;9.83;4.60;;;4.40;99.90;;;;;;4939260;29;20244;-73
2023/01/28 11:54:34;;;;;;;10.17;4.47;;;4.50;99.90;;;;;;4940612;29;20207;-75
2023/01/28 11:57:22;;;;;;;9.13;4.43;;;4.40;99.90;;;;;;4938103;29;20586;-72
2023/01/28 12:00:02;;;;;;;8.03;3.97;;;4.50;99.90;;;;;;4935219;29;20237;-72
2023/01/28 12:02:53;;;;;;;12.33;5.10;;;4.40;99.90;;;;;;4947586;29;20208;-72
2023/01/28 12:05:33;;;;;;;8.23;3.80;;;4.60;99.90;;;;;;4936828;29;20230;-72
2023/01/28 12:08:09;;;;;;;8.27;3.93;;;4.50;99.90;;;;;;4938881;29;20685;-72
2023/01/28 12:10:44;;;;;;;8.30;4.57;;;4.50;99.90;;;;;;4938886;29;20247;-72
2023/01/28 12:13:25;;;;;;;8.80;4.43;;;4.40;99.90;;;;;;4939009;29;20698;-71
2023/01/28 12:16:06;;;;;;;10.87;4.97;;;4.40;99.90;;;;;;4938335;29;20223;-72
2023/01/28 12:19:06;;;;;;;9.60;4.53;;;4.50;99.90;;;;;;4935723;29;20208;-73
2023/01/28 12:21:43;;;;;;;10.30;5.40;;;4.60;99.90;;;;;;4936545;29;20244;-72
2023/01/28 12:24:26;;;;;;;9.53;4.10;;;4.60;99.90;;;;;;4937481;29;20208;-74
2023/01/28 12:27:04;;;;;;;6.97;4.33;;;4.60;99.90;;;;;;4934927;29;20212;-72
2023/01/28 12:29:41;;;;;;;9.67;4.47;;;4.40;99.90;;;;;;4932232;29;20231;-73
2023/01/28 12:32:30;;;;;;;8.77;4.43;;;4.40;99.90;;;;;;4941824;29;20256;-75
2023/01/28 12:35:22;;;;;;;6.97;4.07;;;4.60;99.90;;;;;;4937693;29;20337;-72
2023/01/28 12:37:59;;;;;;;7.03;3.90;;;4.70;99.90;;;;;;4936209;29;20212;-71
2023/01/28 12:40:50;;;;;;;9.17;4.70;;;5.00;99.90;;;;;;4935508;29;20228;-72
2023/01/28 12:43:24;;;;;;;18.10;7.50;;;5.20;99.90;;;;;;4932642;29;20209;-73
2023/01/28 12:45:56;;;;;;;18.43;8.33;;;5.10;99.90;;;;;;4935744;29;20213;-72
2023/01/28 12:48:29;;;;;;;10.17;5.13;;;4.90;99.90;;;;;;4934909;29;20365;-72
2023/01/28 12:51:02;;;;;;;13.07;4.63;;;4.80;99.90;;;;;;4934699;29;20695;-71
2023/01/28 12:53:36;;;;;;;8.87;4.57;;;4.60;99.90;;;;;;4935303;29;20215;-71
2023/01/28 12:56:08;;;;;;;9.73;4.90;;;4.50;99.90;;;;;;4935524;29;20675;-71
2023/01/28 12:58:42;;;;;;;9.10;4.70;;;4.40;99.90;;;;;;4935801;29;20211;-75
2023/01/28 13:01:14;;;;;;;11.83;5.17;;;4.10;99.90;;;;;;4935817;29;20213;-76
2023/01/28 13:03:49;;;;;;;10.67;4.80;;;4.00;99.90;;;;;;4935414;29;20212;-72
2023/01/28 13:06:24;;;;;;;9.50;4.80;;;3.90;99.90;;;;;;4935252;29;20212;-70
2023/01/28 13:08:58;;;;;;;8.17;4.60;;;4.00;99.90;;;;;;4936653;29;20646;-72
2023/01/28 13:11:33;;;;;;;8.73;4.67;;;4.10;99.90;;;;;;4936761;29;20239;-74
2023/01/28 13:14:02;;;;;;;13.47;5.50;;;4.20;99.90;;;;;;4936568;29;20212;-75
2023/01/28 13:16:29;;;;;;;8.90;4.47;;;4.00;99.90;;;;;;4936116;29;20217;-75
2023/01/28 13:19:06;;;;;;;11.20;5.10;;;3.90;99.90;;;;;;4936723;29;20229;-72
2023/01/28 13:21:35;;;;;;;11.77;5.23;;;4.20;99.90;;;;;;4936786;29;20213;-73
2023/01/28 13:24:18;;;;;;;10.80;4.00;;;4.40;99.90;;;;;;4936517;29;20209;-72
2023/01/28 13:26:46;;;;;;;6.90;4.00;;;4.20;99.90;;;;;;4936527;29;20218;-76
2023/01/28 13:29:28;;;;;;;10.43;4.90;;;4.10;99.90;;;;;;4936541;29;20692;-71
2023/01/28 13:31:57;;;;;;;9.90;5.07;;;3.90;99.90;;;;;;4936490;29;20240;-72
2023/01/28 13:34:43;;;;;;;10.30;4.73;;;3.90;99.90;;;;;;4936087;29;20216;-71
2023/01/28 13:37:21;;;;;;;10.07;4.73;;;4.10;99.90;;;;;;4936342;29;20205;-72
2023/01/28 13:39:51;;;;;;;10.97;4.87;;;4.30;99.90;;;;;;4936050;29;20726;-74
2023/01/28 13:42:24;;;;;;;8.60;4.77;;;4.10;99.90;;;;;;4936052;29;20295;-70
2023/01/28 13:44:53;;;;;;;10.53;4.40;;;4.30;99.90;;;;;;4936040;29;20208;-72
2023/01/28 13:47:30;;;;;;;10.17;5.00;;;4.20;99.90;;;;;;4942596;29;20735;-76
2023/01/28 13:50:01;;;;;;;9.93;4.57;;;4.00;99.90;;;;;;4944941;29;20229;-76
2023/01/28 13:52:30;;;;;;;11.07;5.17;;;3.90;99.90;;;;;;4943418;29;20231;-77
2023/01/28 13:55:02;;;;;;;10.47;5.10;;;4.00;99.90;;;;;;4943079;29;20263;-77
2023/01/28 13:58:01;;;;;;;9.10;4.70;;;4.20;99.90;;;;;;4935777;29;20208;-76
2023/01/28 14:00:36;;;;;;;10.40;4.70;;;4.70;99.90;;;;;;4936149;29;20235;-76
2023/01/28 14:03:41;;;;;;;8.47;4.50;;;5.10;99.90;;;;;;4935758;29;20224;-75
2023/01/28 14:06:29;;;;;;;10.50;5.33;;;5.20;99.90;;;;;;4936226;29;20205;-71
2023/01/28 14:09:20;;;;;;;10.13;5.07;;;5.30;99.90;;;;;;4936048;29;20588;-74
2023/01/28 14:12:23;;;;;;;12.43;5.57;;;5.50;99.90;;;;;;4935757;29;20592;-74
2023/01/28 14:15:19;;;;;;;9.30;4.77;;;5.40;99.90;;;;;;4917595;29;20204;-75
2023/01/28 14:17:50;;;;;;;7.47;4.60;;;5.20;99.90;;;;;;4935958;29;20208;-75
2023/01/28 14:20:20;;;;;;;9.47;4.53;;;4.80;99.90;;;;;;4935805;29;20588;-74
2023/01/28 14:22:48;;;;;;;12.10;4.90;;;4.80;99.90;;;;;;4935850;29;20220;-76
2023/01/28 14:25:20;;;;;;;8.07;4.43;;;5.00;99.90;;;;;;4935461;29;20244;-74
2023/01/28 14:27:52;;;;;;;8.63;3.90;;;5.30;99.90;;;;;;4937882;29;20215;-75
2023/01/28 14:30:24;;;;;;;7.40;4.30;;;5.40;99.90;;;;;;4939706;29;20228;-76
2023/01/28 14:32:53;;;;;;;8.20;3.90;;;5.70;99.90;;;;;;4939505;29;20327;-73
2023/01/28 14:35:28;;;;;;;7.57;3.80;;;5.80;99.90;;;;;;4939431;29;20211;-73
2023/01/28 14:37:56;;;;;;;7.47;3.57;;;5.40;99.90;;;;;;4939482;29;20218;-76
2023/01/28 14:40:23;;;;;;;7.23;3.67;;;5.40;99.90;;;;;;4939461;29;20232;-75
2023/01/28 14:42:53;;;;;;;8.33;4.40;;;5.50;99.90;;;;;;4939552;29;20231;-74
2023/01/28 14:45:36;;;;;;;6.13;3.67;;;5.30;99.90;;;;;;4939554;29;20228;-75
2023/01/28 14:48:17;;;;;;;9.43;4.07;;;5.30;99.90;;;;;;4939396;29;20209;-74
2023/01/28 14:51:01;;;;;;;7.00;3.90;;;5.30;99.90;;;;;;4939355;29;20228;-75
2023/01/28 14:53:40;;;;;;;9.93;4.50;;;4.90;99.90;;;;;;4938951;29;20240;-74
2023/01/28 14:56:19;;;;;;;8.00;4.30;;;4.60;99.90;;;;;;4939080;29;20294;-76
2023/01/28 14:58:50;;;;;;;8.97;4.50;;;4.40;99.90;;;;;;4939253;29;20219;-75
2023/01/28 15:01:21;;;;;;;7.27;4.03;;;4.40;99.90;;;;;;4939085;29;20209;-75
2023/01/28 15:03:50;;;;;;;8.90;4.53;;;4.50;99.90;;;;;;4939098;29;20209;-76
2023/01/28 15:06:20;;;;;;;7.57;4.00;;;4.40;99.90;;;;;;4938681;29;20205;-73
2023/01/28 15:08:47;;;;;;;8.57;4.30;;;4.60;99.90;;;;;;4938462;29;20259;-75
2023/01/28 15:11:17;;;;;;;8.63;3.70;;;4.60;99.90;;;;;;4938408;29;20209;-76
2023/01/28 15:13:47;;;;;;;7.67;4.07;;;4.50;99.90;;;;;;4938240;29;20721;-72
2023/01/28 15:16:20;;;;;;;8.67;3.53;;;4.00;99.90;;;;;;4938115;29;20213;-72
2023/01/28 15:18:49;;;;;;;9.37;4.07;;;4.00;99.90;;;;;;4940290;29;20216;-74
2023/01/28 15:21:20;;;;;;;10.27;5.07;;;4.20;99.90;;;;;;4938879;29;20209;-76
2023/01/28 15:23:50;;;;;;;9.40;4.73;;;4.20;99.90;;;;;;4937816;29;20224;-72
2023/01/28 15:26:19;;;;;;;9.03;4.47;;;4.10;99.90;;;;;;4943573;29;20256;-72
2023/01/28 15:28:48;;;;;;;8.23;3.67;;;4.20;99.90;;;;;;4938395;29;20209;-73
2023/01/28 15:31:22;;;;;;;10.90;4.27;;;4.00;99.90;;;;;;4943336;29;20688;-74
2023/01/28 15:34:02;;;;;;;8.03;3.50;;;4.30;99.90;;;;;;4939188;29;20228;-70
2023/01/28 15:36:29;;;;;;;7.27;3.10;;;4.60;99.90;;;;;;4937979;29;20209;-73
2023/01/28 15:38:57;;;;;;;7.20;3.87;;;4.70;99.90;;;;;;4936127;29;20717;-71
2023/01/28 15:41:28;;;;;;;7.73;4.33;;;4.40;99.90;;;;;;4948126;29;20302;-73
2023/01/28 15:43:55;;;;;;;9.67;4.30;;;4.20;99.90;;;;;;4942295;29;20223;-73
2023/01/28 15:46:22;;;;;;;7.93;3.97;;;4.30;99.90;;;;;;4937757;29;20209;-72
2023/01/28 15:48:55;;;;;;;7.87;4.17;;;4.10;99.90;;;;;;4939591;29;20237;-73
2023/01/28 15:51:26;;;;;;;10.50;4.50;;;4.30;99.90;;;;;;4936851;29;20300;-73
2023/01/28 15:53:58;;;;;;;8.93;3.90;;;4.30;99.90;;;;;;4937056;29;20236;-74
2023/01/28 15:56:26;;;;;;;8.90;5.00;;;4.30;99.90;;;;;;4937103;29;20208;-76
2023/01/28 15:58:54;;;;;;;7.77;3.90;;;4.30;99.90;;;;;;4937326;29;20280;-77
2023/01/28 16:01:22;;;;;;;9.60;4.53;;;4.30;99.90;;;;;;4937459;29;20264;-75
2023/01/28 16:04:01;;;;;;;10.17;4.87;;;4.50;99.90;;;;;;4937880;29;20216;-74
2023/01/28 16:06:36;;;;;;;8.67;3.70;;;4.50;99.90;;;;;;4937665;29;20213;-77
2023/01/28 16:09:06;;;;;;;7.17;4.20;;;4.70;99.90;;;;;;4937829;29;20228;-74
2023/01/28 16:11:36;;;;;;;9.37;4.70;;;4.80;99.90;;;;;;4937606;29;20209;-75
2023/01/28 16:14:03;;;;;;;10.13;4.43;;;4.90;99.90;;;;;;4937845;29;20264;-75
2023/01/28 16:16:33;;;;;;;8.30;4.50;;;4.90;99.90;;;;;;4937860;29;20205;-75
2023/01/28 16:19:00;;;;;;;7.40;4.00;;;4.90;99.90;;;;;;4937480;29;20228;-74
2023/01/28 16:21:30;;;;;;;8.83;4.43;;;4.80;99.90;;;;;;4937575;29;20216;-72
2023/01/28 16:24:04;;;;;;;13.03;5.20;;;4.70;99.90;;;;;;4937605;29;20283;-74
2023/01/28 16:26:33;;;;;;;9.83;4.90;;;4.80;99.90;;;;;;4937633;29;20653;-74
2023/01/28 16:29:11;;;;;;;10.70;4.43;;;4.80;99.90;;;;;;4937618;29;20256;-74
2023/01/28 16:31:38;;;;;;;9.83;4.60;;;4.70;99.90;;;;;;4937419;29;20216;-74
2023/01/28 16:34:05;;;;;;;10.73;4.50;;;4.80;99.90;;;;;;4937448;29;20602;-74
2023/01/28 16:36:31;;;;;;;11.07;5.03;;;4.60;99.90;;;;;;4937563;29;20209;-74
2023/01/28 16:38:58;;;;;;;8.67;4.47;;;4.40;99.90;;;;;;4937237;29;20228;-75
2023/01/28 16:41:28;;;;;;;9.23;4.30;;;4.00;99.90;;;;;;4937604;29;20204;-73
2023/01/28 16:43:55;;;;;;;9.97;4.70;;;4.10;99.90;;;;;;4937209;29;20660;-74
2023/01/28 16:46:26;;;;;;;10.23;4.47;;;4.30;99.90;;;;;;4937691;29;20682;-74
2023/01/28 16:48:52;;;;;;;10.30;4.30;;;4.40;99.90;;;;;;4937027;29;20224;-75
2023/01/28 16:51:19;;;;;;;11.10;4.70;;;4.30;99.90;;;;;;4936228;29;20215;-77
2023/01/28 16:53:48;;;;;;;7.90;3.90;;;4.40;99.90;;;;;;4937301;29;20236;-76
2023/01/28 16:56:17;;;;;;;8.37;4.03;;;4.40;99.90;;;;;;4937045;29;20213;-74
2023/01/28 16:58:46;;;;;;;9.43;4.30;;;4.20;99.90;;;;;;4937145;29;20212;-75
2023/01/28 17:01:12;;;;;;;7.80;3.93;;;4.10;99.90;;;;;;4937039;29;20213;-75
2023/01/28 17:03:40;;;;;;;9.17;4.50;;;4.10;99.90;;;;;;4936819;29;20216;-73
2023/01/28 17:06:07;;;;;;;10.33;4.73;;;4.10;99.90;;;;;;4936847;29;20205;-74
2023/01/28 17:08:34;;;;;;;11.37;5.17;;;4.00;99.90;;;;;;4936562;29;20220;-75
2023/01/28 17:11:01;;;;;;;10.70;4.47;;;4.10;99.90;;;;;;4936967;29;20204;-75
2023/01/28 17:13:28;;;;;;;10.50;4.60;;;4.10;99.90;;;;;;4936689;29;20248;-76
2023/01/28 17:15:56;;;;;;;11.40;5.03;;;4.10;99.90;;;;;;4936633;29;20212;-74
2023/01/28 17:18:23;;;;;;;10.20;4.93;;;4.10;99.90;;;;;;4936596;29;20220;-75
2023/01/28 17:20:49;;;;;;;13.63;5.17;;;4.20;99.90;;;;;;4936608;29;20319;-73
2023/01/28 17:23:21;;;;;;;12.07;5.40;;;4.20;99.90;;;;;;4936655;29;20220;-76
2023/01/28 17:25:49;;;;;;;10.80;5.30;;;3.90;99.90;;;;;;4936364;29;20208;-73
2023/01/28 17:28:16;;;;;;;7.67;4.17;;;3.70;99.90;;;;;;4936512;29;20220;-74
2023/01/28 17:30:43;;;;;;;9.20;4.37;;;3.70;99.90;;;;;;4936394;29;20228;-74
2023/01/28 17:33:11;;;;;;;10.53;4.87;;;3.90;99.90;;;;;;4936380;29;20236;-74
2023/01/28 17:35:38;;;;;;;12.50;4.37;;;3.90;99.90;;;;;;4936509;29;20209;-75
2023/01/28 17:38:05;;;;;;;7.47;4.13;;;3.70;99.90;;;;;;4936152;29;20215;-74
2023/01/28 17:40:32;;;;;;;8.40;5.00;;;3.60;99.90;;;;;;4936087;29;20328;-75
2023/01/28 17:42:58;;;;;;;7.30;4.20;;;3.50;99.90;;;;;;4936099;29;20219;-76
2023/01/28 17:45:25;;;;;;;9.77;4.73;;;3.40;99.90;;;;;;4936487;29;20212;-76
2023/01/28 17:47:52;;;;;;;9.23;4.87;;;3.20;99.90;;;;;;4936298;29;20213;-73
2023/01/28 17:50:20;;;;;;;10.37;4.87;;;3.20;99.90;;;;;;4936060;29;20233;-75
2023/01/28 17:52:47;;;;;;;11.27;5.37;;;3.00;99.90;;;;;;4936086;29;20228;-76
2023/01/28 17:55:14;;;;;;;10.97;4.90;;;3.00;99.90;;;;;;4936114;29;20205;-76
2023/01/28 17:57:44;;;;;;;12.37;4.70;;;2.90;99.90;;;;;;4936117;29;20216;-73
2023/01/28 18:00:12;;;;;;;9.80;5.03;;;2.70;99.90;;;;;;4936200;29;20232;-73
2023/01/28 18:02:39;;;;;;;12.47;4.77;;;2.60;99.90;;;;;;4936023;29;20220;-76
2023/01/28 18:05:06;;;;;;;10.10;4.90;;;2.50;99.90;;;;;;4935904;29;20201;-76
2023/01/28 18:07:34;;;;;;;10.77;5.37;;;2.40;99.90;;;;;;4935941;29;20212;-74
2023/01/28 18:10:01;;;;;;;10.33;5.20;;;2.30;99.90;;;;;;4935630;29;20225;-77
2023/01/28 18:12:28;;;;;;;10.47;5.03;;;2.30;99.90;;;;;;4935909;29;20208;-75
2023/01/28 18:14:55;;;;;;;11.60;4.93;;;2.20;99.90;;;;;;4935651;29;20209;-73
2023/01/28 18:17:25;;;;;;;12.93;5.30;;;2.20;99.90;;;;;;4935915;29;20208;-75
2023/01/28 18:19:52;;;;;;;12.27;4.63;;;2.10;99.90;;;;;;4935626;29;20229;-74
2023/01/28 18:22:19;;;;;;;8.87;4.90;;;2.00;99.90;;;;;;4935693;29;20220;-74
2023/01/28 18:24:47;;;;;;;8.83;4.47;;;2.00;99.90;;;;;;4935756;29;20213;-73
2023/01/28 18:27:14;;;;;;;10.43;4.67;;;1.90;99.90;;;;;;4935782;29;20219;-74
2023/01/28 18:29:40;;;;;;;12.67;5.00;;;1.80;99.90;;;;;;4935923;29;20236;-73
2023/01/28 18:32:07;;;;;;;9.63;5.03;;;1.70;99.90;;;;;;4935815;29;20209;-73
2023/01/28 18:34:34;;;;;;;14.27;5.17;;;1.70;99.90;;;;;;4935799;29;20670;-75
2023/01/28 18:37:02;;;;;;;12.77;5.43;;;1.60;99.90;;;;;;4935537;29;20209;-76
2023/01/28 18:39:29;;;;;;;12.73;6.40;;;1.50;99.90;;;;;;4935633;29;20284;-74
2023/01/28 18:41:58;;;;;;;14.00;5.97;;;1.30;99.90;;;;;;4936196;29;20668;-75
2023/01/28 18:44:26;;;;;;;14.67;5.27;;;1.40;99.90;;;;;;4937333;29;20234;-76
2023/01/28 18:46:54;;;;;;;16.70;7.10;;;1.90;99.90;;;;;;4936080;29;20208;-74
2023/01/28 18:49:20;;;;;;;15.67;7.10;;;1.80;99.90;;;;;;4935283;29;20250;-74
2023/01/28 18:51:47;;;;;;;14.57;6.73;;;1.70;99.90;;;;;;4935458;29;20215;-74
2023/01/28 18:54:15;;;;;;;15.37;6.90;;;1.70;99.90;;;;;;4935309;29;20580;-74
2023/01/28 18:56:43;;;;;;;18.73;7.47;;;1.60;99.90;;;;;;4935512;29;20215;-73
2023/01/28 18:59:13;;;;;;;17.03;7.43;;;1.60;99.90;;;;;;4935676;29;20229;-74
2023/01/28 19:01:41;;;;;;;17.13;7.77;;;1.40;99.90;;;;;;4935198;29;20664;-74
2023/01/28 19:04:08;;;;;;;19.07;9.50;;;1.30;99.90;;;;;;4935441;29;20226;-73
2023/01/28 19:06:35;;;;;;;19.77;9.40;;;1.30;99.90;;;;;;4935780;29;20209;-75
2023/01/28 19:09:05;;;;;;;18.10;9.50;;;1.20;99.90;;;;;;4935097;29;20823;-76
2023/01/28 19:11:33;;;;;;;29.30;10.13;;;1.20;99.90;;;;;;4935766;29;20459;-74
2023/01/28 19:14:00;;;;;;;21.23;9.13;;;1.20;99.90;;;;;;4937789;29;20504;-76
2023/01/28 19:16:28;;;;;;;20.07;9.87;;;1.20;99.90;;;;;;4938962;29;20690;-77
2023/01/28 19:18:57;;;;;;;22.70;8.70;;;1.10;99.90;;;;;;4938597;29;20249;-77
2023/01/28 19:21:25;;;;;;;17.80;8.53;;;1.10;99.90;;;;;;4938766;29;20304;-76
2023/01/28 19:23:55;;;;;;;19.43;9.07;;;1.00;99.90;;;;;;4938649;29;20220;-76
2023/01/28 19:26:22;;;;;;;22.03;9.83;;;1.00;99.90;;;;;;4938585;29;20549;-75
2023/01/28 19:28:52;;;;;;;21.03;9.07;;;1.00;99.90;;;;;;4941859;29;20289;-76
2023/01/28 19:31:21;;;;;;;21.43;10.20;;;0.90;99.90;;;;;;4945479;29;20287;-74
2023/01/28 19:33:53;;;;;;;16.63;8.97;;;1.00;99.90;;;;;;4943855;29;20299;-74
2023/01/28 19:36:20;;;;;;;23.70;10.00;;;1.00;99.90;;;;;;4942290;29;20215;-73
2023/01/28 19:38:47;;;;;;;20.33;9.60;;;0.90;99.90;;;;;;4941651;29;20251;-72
2023/01/28 19:41:15;;;;;;;27.20;10.07;;;0.90;99.90;;;;;;4940690;29;20215;-73
2023/01/28 19:43:43;;;;;;;18.70;9.40;;;0.80;99.90;;;;;;4938416;29;20213;-74
2023/01/28 19:46:12;;;;;;;23.07;9.87;;;0.80;99.90;;;;;;4938385;29;20209;-74
2023/01/28 19:48:39;;;;;;;20.47;9.87;;;0.80;99.90;;;;;;4939024;29;20220;-76
2023/01/28 19:51:09;;;;;;;23.47;10.03;;;0.70;99.90;;;;;;4940279;29;20204;-76
2023/01/28 19:53:37;;;;;;;23.57;10.93;;;0.70;99.90;;;;;;4937307;29;20727;-72
2023/01/28 19:56:06;;;;;;;27.93;11.20;;;0.70;99.90;;;;;;4936666;29;20209;-72
2023/01/28 19:58:34;;;;;;;25.90;9.77;;;0.70;99.90;;;;;;4937487;29;20205;-73
2023/01/28 20:01:05;;;;;;;22.93;10.20;;;0.70;99.90;;;;;;4938520;29;20264;-73
2023/01/28 20:03:32;;;;;;;22.80;11.70;;;0.60;99.90;;;;;;4941781;29;20208;-71
2023/01/28 20:06:00;;;;;;;24.40;10.77;;;0.60;99.90;;;;;;4936381;29;20549;-72
2023/01/28 20:08:28;;;;;;;24.97;10.93;;;0.50;99.90;;;;;;4945660;29;20210;-73
2023/01/28 20:11:02;;;;;;;26.53;11.23;;;0.60;99.90;;;;;;4938469;29;20211;-73
2023/01/28 20:13:30;;;;;;;22.23;11.07;;;0.60;99.90;;;;;;4948506;29;20232;-72
2023/01/28 20:15:57;;;;;;;24.90;11.43;;;0.50;99.90;;;;;;4941836;29;20234;-72
2023/01/28 20:18:25;;;;;;;23.80;11.33;;;0.50;99.90;;;;;;4937780;29;20560;-72
2023/01/28 20:20:53;;;;;;;28.53;10.83;;;0.40;99.90;;;;;;4940231;29;20224;-72
2023/01/28 20:23:20;;;;;;;28.43;11.23;;;0.40;99.90;;;;;;4941011;29;20212;-73
2023/01/28 20:25:51;;;;;;;23.83;10.20;;;0.40;99.90;;;;;;4937109;28;20213;-73
2023/01/28 20:28:17;;;;;;;21.33;10.17;;;0.30;99.90;;;;;;4946684;29;20276;-72
2023/01/28 20:30:44;;;;;;;21.20;10.40;;;0.30;99.90;;;;;;4937772;29;20235;-72
2023/01/28 20:33:11;;;;;;;19.60;10.53;;;0.30;99.90;;;;;;4947894;29;20201;-72
2023/01/28 20:35:38;;;;;;;25.97;12.13;;;0.30;99.90;;;;;;4942135;29;20205;-73
2023/01/28 20:38:05;;;;;;;23.40;10.40;;;0.40;99.90;;;;;;4948923;29;20212;-76
2023/01/28 20:40:32;;;;;;;21.83;10.47;;;0.40;99.90;;;;;;4943664;29;20862;-72
2023/01/28 20:43:00;;;;;;;26.10;11.20;;;0.40;99.90;;;;;;4946325;29;20213;-72
2023/01/28 20:45:27;;;;;;;23.17;10.77;;;0.50;99.90;;;;;;4941117;29;20224;-73
2023/01/28 20:47:54;;;;;;;23.63;10.83;;;0.40;99.90;;;;;;4944192;29;20571;-75
2023/01/28 20:50:20;;;;;;;23.43;11.43;;;0.30;99.90;;;;;;4939246;29;20228;-73
2023/01/28 20:52:47;;;;;;;22.20;10.10;;;0.30;99.90;;;;;;4942430;29;20736;-73
2023/01/28 20:55:14;;;;;;;22.17;10.40;;;0.40;99.90;;;;;;4935742;29;20239;-74
2023/01/28 20:57:41;;;;;;;25.43;11.17;;;0.20;99.90;;;;;;4939353;29;20209;-73
2023/01/28 21:00:11;;;;;;;26.20;10.87;;;0.20;99.90;;;;;;4947574;29;20239;-73
2023/01/28 21:02:39;;;;;;;23.53;11.33;;;0.10;99.90;;;;;;4936317;29;20683;-73
2023/01/28 21:05:07;;;;;;;22.80;11.43;;;0.20;99.90;;;;;;4948039;29;20200;-73
2023/01/28 21:07:33;;;;;;;22.17;10.73;;;0.20;99.90;;;;;;4935721;29;20213;-73
2023/01/28 21:10:00;;;;;;;26.43;12.40;;;0.20;99.90;;;;;;4948092;29;20229;-73
2023/01/28 21:12:28;;;;;;;22.97;11.50;;;0.20;99.90;;;;;;4942766;29;20212;-72
2023/01/28 21:14:55;;;;;;;28.83;12.57;;;0.30;99.90;;;;;;4948526;29;20232;-73
2023/01/28 21:17:24;;;;;;;28.07;12.47;;;0.20;99.90;;;;;;4939359;29;20201;-73
2023/01/28 21:19:51;;;;;;;23.50;10.80;;;0.10;99.90;;;;;;4946927;29;20299;-75
2023/01/28 21:22:18;;;;;;;25.87;11.77;;;0.10;99.90;;;;;;4939288;29;20234;-74
2023/01/28 21:24:47;;;;;;;23.77;11.80;;;0.10;99.90;;;;;;4945860;29;20273;-73
2023/01/28 21:27:14;;;;;;;25.33;11.77;;;0.20;99.90;;;;;;4936536;29;20213;-73
2023/01/28 21:29:41;;;;;;;21.70;11.10;;;0.20;99.90;;;;;;4943419;29;20229;-72
2023/01/28 21:32:08;;;;;;;28.30;12.77;;;0.20;99.90;;;;;;4935416;29;20272;-73
2023/01/28 21:34:36;;;;;;;21.13;10.37;;;0.20;99.90;;;;;;4935625;29;20263;-72
2023/01/28 21:37:03;;;;;;;22.73;10.90;;;0.10;99.90;;;;;;4946189;29;20208;-73
2023/01/28 21:39:29;;;;;;;22.77;10.57;;;0.20;99.90;;;;;;4936943;29;20671;-72
2023/01/28 21:41:56;;;;;;;22.30;10.03;;;0.10;99.90;;;;;;4945571;29;20659;-73
2023/01/28 21:44:23;;;;;;;24.13;10.87;;;0.10;99.90;;;;;;4936163;29;20205;-73
2023/01/28 21:46:50;;;;;;;21.30;10.87;;;0.00;99.90;;;;;;4946940;29;20216;-72
2023/01/28 21:49:16;;;;;;;21.33;11.17;;;-0.10;99.90;;;;;;4937589;29;20696;-73
2023/01/28 21:51:47;;;;;;;24.10;11.10;;;-0.10;99.90;;;;;;4934924;29;20572;-73
2023/01/28 21:54:16;;;;;;;20.30;10.73;;;-0.10;99.90;;;;;;4940279;29;20231;-72
2023/01/28 21:56:43;;;;;;;22.33;11.13;;;-0.10;99.90;;;;;;4933217;29;20208;-72
2023/01/28 21:59:29;;;;;;;26.17;10.67;;;0.00;99.90;;;;;;4933831;29;20284;-73
2023/01/28 22:01:57;;;;;;;20.00;10.27;;;0.00;99.90;;;;;;4936038;29;20217;-73
2023/01/28 22:04:24;;;;;;;21.90;10.50;;;0.10;99.90;;;;;;4936059;29;20212;-74
2023/01/28 22:06:54;;;;;;;22.97;10.33;;;0.10;99.90;;;;;;4935794;29;20564;-74
2023/01/28 22:09:22;;;;;;;24.33;10.63;;;0.00;99.90;;;;;;4935380;29;20598;-73
2023/01/28 22:11:48;;;;;;;25.33;11.07;;;0.00;99.90;;;;;;4934931;29;20212;-74
2023/01/28 22:14:15;;;;;;;27.63;11.77;;;0.00;99.90;;;;;;4935213;29;20596;-76
2023/01/28 22:16:43;;;;;;;23.47;11.10;;;0.00;99.90;;;;;;4934845;29;20205;-73
2023/01/28 22:19:10;;;;;;;25.40;10.30;;;0.00;99.90;;;;;;4934873;29;20700;-73
2023/01/28 22:21:39;;;;;;;23.17;10.20;;;-0.10;99.90;;;;;;4935167;29;20209;-72
2023/01/28 22:24:10;;;;;;;22.50;10.77;;;-0.10;99.90;;;;;;4935579;29;20212;-77
2023/01/28 22:26:37;;;;;;;18.93;10.47;;;-0.10;99.90;;;;;;4935652;29;20215;-73
2023/01/28 22:29:04;;;;;;;21.37;9.87;;;-0.10;99.90;;;;;;4935781;29;20228;-75
2023/01/28 22:31:31;;;;;;;19.77;9.90;;;-0.10;99.90;;;;;;4935835;29;20248;-75
2023/01/28 22:33:58;;;;;;;19.03;10.27;;;-0.10;99.90;;;;;;4935519;29;20215;-74
2023/01/28 22:36:25;;;;;;;20.23;10.83;;;-0.20;99.90;;;;;;4935666;29;20243;-74
2023/01/28 22:38:52;;;;;;;27.37;10.37;;;-0.20;99.90;;;;;;4935288;29;20224;-75
2023/01/28 22:41:22;;;;;;;17.50;8.30;;;-0.20;99.90;;;;;;4935515;29;20212;-77
2023/01/28 22:43:49;;;;;;;20.90;9.67;;;-0.20;99.90;;;;;;4935978;29;20671;-75
2023/01/28 22:46:16;;;;;;;26.90;10.10;;;-0.20;99.90;;;;;;4935704;29;20231;-74
2023/01/28 22:48:43;;;;;;;15.20;8.60;;;-0.10;99.90;;;;;;4937504;29;20209;-73
2023/01/28 22:51:17;;;;;;;21.23;9.53;;;-0.20;99.90;;;;;;4939437;29;20212;-73
2023/01/28 22:53:44;;;;;;;19.47;8.57;;;-0.30;99.90;;;;;;4939307;29;20213;-73
2023/01/28 22:56:12;;;;;;;19.50;9.10;;;-0.30;99.90;;;;;;4939470;29;20232;-74
2023/01/28 22:58:40;;;;;;;19.80;9.70;;;-0.40;99.90;;;;;;4939457;29;20579;-75
2023/01/28 23:01:07;;;;;;;22.63;8.93;;;-0.40;99.90;;;;;;4939210;29;20208;-77
2023/01/28 23:03:34;;;;;;;14.00;6.73;;;-0.40;99.90;;;;;;4939018;29;20213;-75
2023/01/28 23:06:03;;;;;;;21.57;7.70;;;-0.50;99.90;;;;;;4938842;29;20216;-73
2023/01/28 23:08:30;;;;;;;17.73;8.17;;;-0.50;99.90;;;;;;4939050;29;20621;-73
2023/01/28 23:11:00;;;;;;;21.10;8.97;;;-0.50;99.90;;;;;;4938973;29;20213;-76
2023/01/28 23:24:17;;;;;;;18.10;8.27;;;-0.50;99.90;;;;;;4938827;29;20682;-76
2023/01/28 23:24:31;;;;;;;19.93;7.63;;;-0.40;99.90;;;;;;4938594;29;20228;-73
2023/01/28 23:27:01;;;;;;;16.73;7.13;;;-0.40;99.90;;;;;;4938538;29;20630;-73
2023/01/28 23:29:30;;;;;;;21.77;9.27;;;-0.40;99.90;;;;;;4938749;29;20315;-74
2023/01/28 23:32:00;;;;;;;24.30;10.70;;;-0.40;99.90;;;;;;4938798;29;20212;-73
2023/01/28 23:34:30;;;;;;;23.20;10.13;;;-0.40;99.90;;;;;;4938287;29;20595;-73
2023/01/28 23:36:57;;;;;;;20.17;9.57;;;-0.50;99.90;;;;;;4938370;29;20252;-72
2023/01/28 23:39:24;;;;;;;19.90;10.17;;;-0.50;99.90;;;;;;4938398;29;20239;-76
2023/01/28 23:41:50;;;;;;;20.00;9.47;;;-0.50;99.90;;;;;;4938376;29;20205;-75
2023/01/28 23:44:17;;;;;;;17.60;9.27;;;-0.50;99.90;;;;;;4938072;29;20672;-75
2023/01/28 23:46:44;;;;;;;19.10;8.53;;;-0.40;99.90;;;;;;4938016;29;20668;-73
2023/01/28 23:49:12;;;;;;;21.07;9.67;;;-0.50;99.90;;;;;;4938137;29;20241;-76
2023/01/28 23:51:39;;;;;;;18.20;8.73;;;-0.30;99.90;;;;;;4938639;29;20212;-74
2023/01/28 23:54:06;;;;;;;17.07;7.60;;;-0.30;99.90;;;;;;4938002;29;20219;-76
2023/01/28 23:56:34;;;;;;;21.10;9.47;;;-0.40;99.90;;;;;;4938233;29;20275;-76
2023/01/28 23:59:02;;;;;;;18.53;7.67;;;-0.30;99.90;;;;;;4937627;29;20233;-73
